createdAt,value
2018-09-05T00:02:11.546Z,13.90
2018-09-05T00:04:41.357Z,12.30
2018-09-05T00:07:10.794Z,14.00
2018-09-05T00:09:39.767Z,14.13
2018-09-05T00:12:08.677Z,12.58
2018-09-05T00:14:37.646Z,15.65
2018-09-05T00:17:06.716Z,17.13
2018-09-05T00:19:35.250Z,16.90
2018-09-05T00:22:03.583Z,14.68
2018-09-05T00:24:31.658Z,16.50
2018-09-05T00:27:00.594Z,18.93
2018-09-05T00:29:28.727Z,18.73
2018-09-05T00:31:57.797Z,16.17
2018-09-05T00:34:25.997Z,17.02
2018-09-05T00:36:54.783Z,17.27
2018-09-05T00:39:23.009Z,15.80
2018-09-05T00:41:51.422Z,15.75
2018-09-05T00:44:20.359Z,15.10
2018-09-05T00:46:49.351Z,15.40
2018-09-05T00:49:18.427Z,16.35
2018-09-05T00:51:47.915Z,14.90
2018-09-05T00:54:16.113Z,15.95
2018-09-05T00:56:44.305Z,15.85
2018-09-05T00:59:13.321Z,18.43
2018-09-05T01:01:42.062Z,18.83
2018-09-05T01:04:11.210Z,20.80
2018-09-05T01:06:39.303Z,17.33
2018-09-05T01:09:09.056Z,18.77
2018-09-05T01:11:37.426Z,19.23
2018-09-05T01:14:07.542Z,16.67
2018-09-05T01:16:38.088Z,18.40
2018-09-05T01:19:06.170Z,22.53
2018-09-05T01:21:35.101Z,19.40
2018-09-05T01:24:03.413Z,23.83
2018-09-05T01:26:31.893Z,19.87
2018-09-05T01:29:01.022Z,19.10
2018-09-05T01:31:29.550Z,21.33
2018-09-05T01:33:59.210Z,21.90
2018-09-05T01:36:28.078Z,23.40
2018-09-05T01:38:57.190Z,22.20
2018-09-05T01:41:25.509Z,20.40
2018-09-05T01:43:53.641Z,17.25
2018-09-05T01:46:22.378Z,16.47
2018-09-05T01:48:50.475Z,17.90
2018-09-05T01:51:19.069Z,18.90
2018-09-05T01:53:47.701Z,16.30
2018-09-05T01:56:16.813Z,18.53
2018-09-05T01:58:46.405Z,17.63
2018-09-05T02:01:15.505Z,19.17
2018-09-05T02:03:44.141Z,19.73
2018-09-05T02:06:13.261Z,19.10
2018-09-05T02:08:41.393Z,20.73
2018-09-05T02:11:09.464Z,21.27
2018-09-05T02:13:38.202Z,18.47
2018-09-05T02:16:07.890Z,17.70
2018-09-05T02:18:36.051Z,15.97
2018-09-05T02:21:04.228Z,18.80
2018-09-05T02:23:32.997Z,19.53
2018-09-05T02:26:01.726Z,18.00
2018-09-05T02:28:30.638Z,19.17
2018-09-05T02:30:58.769Z,18.23
2018-09-05T02:33:29.228Z,20.15
2018-09-05T02:37:01.545Z,21.67
2018-09-05T02:39:30.631Z,19.70
2018-09-05T02:41:58.777Z,19.27
2018-09-05T02:44:27.549Z,17.60
2018-09-05T02:46:56.561Z,20.00
2018-09-05T02:49:26.909Z,23.23
2018-09-05T02:51:56.070Z,24.10
2018-09-05T02:54:24.538Z,22.73
2018-09-05T02:56:53.817Z,24.33
2018-09-05T02:59:22.293Z,23.83
2018-09-05T03:01:50.698Z,25.27
2018-09-05T03:04:18.877Z,21.90
2018-09-05T03:06:48.894Z,23.10
2018-09-05T03:09:18.205Z,20.33
2018-09-05T03:11:47.040Z,23.97
2018-09-05T03:14:15.329Z,24.50
2018-09-05T03:16:43.541Z,25.50
2018-09-05T03:19:13.354Z,21.43
2018-09-05T03:21:41.550Z,21.70
2018-09-05T03:24:10.017Z,20.97
2018-09-05T03:26:39.377Z,23.27
2018-09-05T03:29:08.833Z,23.27
2018-09-05T03:31:37.089Z,18.63
2018-09-05T03:34:07.744Z,21.03
2018-09-05T03:36:36.466Z,23.63
2018-09-05T03:39:07.954Z,20.40
2018-09-05T03:41:36.111Z,24.33
2018-09-05T03:44:04.993Z,19.47
2018-09-05T03:46:33.156Z,24.83
2018-09-05T03:49:01.273Z,22.33
2018-09-05T03:51:29.476Z,18.50
2018-09-05T03:53:57.577Z,19.27
2018-09-05T03:56:26.033Z,20.10
2018-09-05T03:58:54.118Z,22.13
2018-09-05T04:01:22.455Z,20.83
2018-09-05T04:03:52.778Z,21.80
2018-09-05T04:06:22.448Z,19.60
2018-09-05T04:08:52.857Z,21.43
2018-09-05T04:11:21.373Z,21.57
2018-09-05T04:13:50.013Z,18.43
2018-09-05T04:16:18.377Z,18.27
2018-09-05T04:18:46.495Z,21.07
2018-09-05T04:21:15.853Z,20.93
2018-09-05T04:23:46.981Z,23.43
2018-09-05T04:26:17.318Z,24.90
2018-09-05T04:28:45.521Z,24.07
2018-09-05T04:31:15.329Z,24.03
2018-09-05T04:33:44.611Z,18.63
2018-09-05T04:36:14.364Z,20.87
2018-09-05T04:38:44.021Z,20.00
2018-09-05T04:41:12.715Z,25.90
2018-09-05T04:43:41.829Z,21.70
2018-09-05T04:46:09.980Z,22.40
2018-09-05T04:48:38.473Z,22.43
2018-09-05T04:51:07.173Z,21.17
2018-09-05T04:53:36.295Z,18.50
2018-09-05T04:56:05.445Z,17.73
2018-09-05T04:58:34.514Z,16.07
2018-09-05T05:01:02.648Z,19.23
2018-09-05T05:03:30.725Z,16.23
2018-09-05T05:05:59.242Z,15.17
2018-09-05T05:08:28.758Z,16.90
2018-09-05T05:10:57.690Z,16.63
2018-09-05T05:13:25.898Z,14.70
2018-09-05T05:15:54.676Z,11.97
2018-09-05T05:18:22.886Z,16.23
2018-09-05T05:20:51.132Z,14.23
2018-09-05T05:23:19.442Z,15.47
2018-09-05T05:25:49.405Z,12.53
2018-09-05T05:28:18.001Z,16.83
2018-09-05T05:30:46.122Z,15.83
2018-09-05T05:33:15.027Z,19.80
2018-09-05T05:35:43.934Z,16.37
2018-09-05T05:38:13.214Z,22.37
2018-09-05T05:40:42.857Z,19.43
2018-09-05T05:43:10.982Z,17.97
2018-09-05T05:45:40.249Z,21.00
2018-09-05T05:48:08.399Z,19.90
2018-09-05T05:50:36.697Z,18.07
2018-09-05T05:53:05.287Z,21.02
2018-09-05T05:55:33.873Z,21.85
2018-09-05T05:58:02.450Z,16.50
2018-09-05T06:00:30.645Z,16.80
2018-09-05T06:02:59.862Z,15.53
2018-09-05T06:05:28.057Z,19.12
2018-09-05T06:07:56.285Z,16.05
2018-09-05T06:10:26.701Z,19.57
2018-09-05T06:12:56.654Z,17.42
2018-09-05T06:15:25.738Z,21.45
2018-09-05T06:17:54.520Z,18.33
2018-09-05T06:20:22.903Z,18.25
2018-09-05T06:22:51.366Z,17.40
2018-09-05T06:25:19.859Z,17.17
2018-09-05T06:27:48.916Z,18.23
2018-09-05T06:30:17.322Z,18.48
2018-09-05T06:32:47.194Z,15.35
2018-09-05T06:35:16.558Z,18.80
2018-09-05T06:37:45.282Z,20.97
2018-09-05T06:40:13.398Z,19.55
2018-09-05T06:42:42.453Z,18.40
2018-09-05T06:45:10.895Z,24.35
2018-09-05T06:47:38.962Z,23.22
2018-09-05T06:50:07.718Z,23.30
2018-09-05T06:52:35.913Z,18.82
2018-09-05T06:55:04.526Z,18.65
2018-09-05T06:57:32.734Z,18.35
2018-09-05T07:00:02.262Z,15.80
2018-09-05T07:02:30.566Z,17.32
2018-09-05T07:04:59.170Z,17.95
2018-09-05T07:07:27.926Z,20.45
2018-09-05T07:09:56.152Z,16.12
2018-09-05T07:12:24.245Z,17.45
2018-09-05T07:14:52.430Z,17.62
2018-09-05T07:17:21.117Z,14.70
2018-09-05T07:19:49.374Z,16.70
2018-09-05T07:22:19.387Z,17.20
2018-09-05T07:24:47.584Z,19.30
2018-09-05T07:27:17.094Z,16.65
2018-09-05T07:29:45.379Z,17.50
2018-09-05T07:32:14.437Z,21.02
2018-09-05T07:34:42.617Z,14.83
2018-09-05T07:37:11.753Z,12.25
2018-09-05T07:39:39.994Z,11.88
2018-09-05T07:42:10.062Z,13.45
2018-09-05T07:44:38.813Z,14.18
2018-09-05T07:47:07.948Z,13.30
2018-09-05T07:49:36.397Z,12.10
2018-09-05T07:52:05.660Z,12.37
2018-09-05T07:54:34.875Z,12.50
2018-09-05T07:57:03.540Z,12.78
2018-09-05T07:59:33.165Z,13.18
2018-09-05T08:02:01.336Z,13.35
2018-09-05T08:04:30.671Z,14.60
2018-09-05T08:06:59.037Z,14.55
2018-09-05T08:09:28.113Z,11.60
2018-09-05T08:11:56.330Z,13.98
2018-09-05T08:14:25.313Z,11.75
2018-09-05T08:16:54.405Z,12.25
2018-09-05T08:19:23.861Z,13.08
2018-09-05T08:21:54.479Z,10.48
2018-09-05T08:24:23.503Z,13.13
2018-09-05T08:26:51.552Z,11.93
2018-09-05T08:29:20.034Z,13.15
2018-09-05T08:31:50.429Z,12.63
2018-09-05T08:34:20.453Z,11.68
2018-09-05T08:36:50.385Z,10.78
2018-09-05T08:39:18.324Z,10.45
2018-09-05T08:41:46.522Z,12.68
2018-09-05T08:44:15.471Z,13.43
2018-09-05T08:46:43.484Z,13.78
2018-09-05T08:49:11.718Z,13.10
2018-09-05T08:51:40.297Z,12.40
2018-09-05T09:01:06.300Z,8.48
2018-09-05T09:03:34.827Z,9.10
2018-09-05T09:06:03.452Z,10.28
2018-09-05T09:08:32.494Z,8.53
2018-09-05T09:11:00.918Z,7.75
2018-09-05T09:13:29.145Z,9.95
2018-09-05T09:15:57.373Z,8.80
2018-09-05T09:18:25.793Z,10.65
2018-09-05T09:20:54.001Z,9.30
2018-09-05T09:23:22.210Z,9.23
2018-09-05T09:25:50.371Z,10.32
2018-09-05T09:28:19.314Z,8.15
2018-09-05T09:30:47.403Z,9.23
2018-09-05T09:33:17.054Z,7.80
2018-09-05T09:35:45.132Z,8.28
2018-09-05T09:38:13.293Z,9.08
2018-09-05T09:40:41.681Z,9.20
2018-09-05T09:43:09.795Z,8.95
2018-09-05T09:45:37.922Z,9.05
2018-09-05T09:48:07.349Z,9.95
2018-09-05T09:50:35.485Z,10.05
2018-09-05T09:53:03.921Z,9.28
2018-09-05T09:55:32.053Z,9.20
2018-09-05T09:58:01.029Z,8.75
2018-09-05T10:00:34.981Z,9.40
2018-09-05T10:03:08.551Z,8.35
2018-09-05T10:05:42.166Z,8.78
2018-09-05T10:08:15.434Z,7.50
2018-09-05T10:10:50.306Z,7.85
2018-09-05T10:13:25.345Z,6.60
2018-09-05T10:15:59.103Z,6.35
2018-09-05T10:18:29.454Z,7.00
2018-09-05T10:20:59.294Z,5.55
2018-09-05T10:23:27.381Z,5.60
2018-09-05T10:25:56.755Z,5.53
2018-09-05T10:28:25.896Z,4.75
2018-09-05T10:30:53.969Z,5.10
2018-09-05T10:33:22.597Z,5.22
2018-09-05T10:35:51.276Z,4.90
2018-09-05T10:38:19.562Z,4.67
2018-09-05T10:40:48.201Z,4.95
2018-09-05T10:43:17.385Z,5.62
2018-09-05T10:45:46.359Z,5.90
2018-09-05T10:48:14.927Z,5.05
2018-09-05T10:50:43.948Z,4.85
2018-09-05T10:53:12.117Z,4.78
2018-09-05T10:55:40.517Z,4.15
2018-09-05T10:58:09.422Z,5.22
2018-09-05T11:00:37.439Z,4.72
2018-09-05T11:06:05.073Z,4.80
2018-09-05T11:08:34.038Z,5.15
2018-09-05T11:11:02.185Z,5.03
2018-09-05T11:13:31.282Z,5.05
2018-09-05T11:15:59.953Z,5.53
2018-09-05T11:18:29.289Z,4.60
2018-09-05T11:20:57.938Z,4.53
2018-09-05T11:23:26.150Z,4.12
2018-09-05T11:25:55.049Z,5.12
2018-09-05T11:28:23.229Z,3.98
2018-09-05T11:30:51.376Z,3.50
2018-09-05T11:33:19.955Z,3.72
2018-09-05T11:35:48.177Z,3.98
2018-09-05T11:38:17.150Z,3.70
2018-09-05T11:40:45.581Z,3.70
2018-09-05T11:43:14.525Z,3.70
2018-09-05T11:45:43.084Z,3.70
2018-09-05T11:48:11.293Z,3.62
2018-09-05T11:50:40.027Z,3.55
2018-09-05T11:53:08.118Z,3.52
2018-09-05T11:55:36.565Z,3.17
2018-09-05T11:58:05.070Z,2.85
2018-09-05T12:00:33.252Z,3.45
2018-09-05T12:03:01.905Z,3.02
2018-09-05T12:05:30.193Z,3.10
2018-09-05T12:07:59.038Z,3.80
2018-09-05T12:10:27.806Z,3.20
2018-09-05T12:12:57.100Z,3.02
2018-09-05T12:15:25.917Z,3.50
2018-09-05T12:17:54.397Z,2.65
2018-09-05T12:20:23.777Z,3.25
2018-09-05T12:22:53.149Z,3.20
2018-09-05T12:25:21.876Z,2.92
2018-09-05T12:27:50.057Z,3.20
2018-09-05T12:30:18.735Z,3.30
2018-09-05T12:32:47.197Z,2.65
2018-09-05T12:35:15.409Z,2.95
2018-09-05T12:37:44.235Z,3.05
2018-09-05T12:40:13.618Z,3.20
2018-09-05T12:42:41.854Z,2.47
2018-09-05T12:45:10.342Z,2.80
2018-09-05T12:47:38.417Z,2.80
2018-09-05T12:50:07.009Z,2.85
2018-09-05T12:52:35.785Z,3.00
2018-09-05T12:55:04.082Z,2.90
2018-09-05T12:57:32.286Z,2.40
2018-09-05T13:00:00.570Z,3.12
2018-09-05T13:02:30.218Z,2.52
2018-09-05T13:06:01.936Z,2.67
2018-09-05T13:08:30.997Z,3.20
2018-09-05T13:10:59.306Z,2.87
2018-09-05T13:13:27.415Z,3.27
2018-09-05T13:15:55.925Z,3.15
2018-09-05T13:18:24.139Z,2.70
2018-09-05T13:20:53.907Z,3.08
2018-09-05T13:23:22.097Z,2.45
2018-09-05T13:25:50.454Z,2.80
2018-09-05T13:28:19.132Z,2.42
2018-09-05T13:30:47.689Z,2.30
2018-09-05T13:33:16.342Z,3.65
2018-09-05T13:35:44.473Z,2.90
2018-09-05T13:38:13.625Z,2.42
2018-09-05T13:40:43.018Z,2.52
2018-09-05T13:43:11.188Z,4.08
2018-09-05T13:45:39.319Z,2.35
2018-09-05T13:48:07.546Z,2.80
2018-09-05T13:50:36.450Z,2.40
2018-09-05T13:53:04.605Z,2.87
2018-09-05T13:55:32.694Z,2.62
2018-09-05T13:58:00.941Z,2.47
2018-09-05T14:00:29.850Z,2.40
2018-09-05T14:02:58.169Z,2.77
2018-09-05T14:05:27.461Z,2.58
2018-09-05T14:07:56.106Z,2.52
2018-09-05T14:10:25.573Z,2.47
2018-09-05T14:12:54.114Z,2.87
2018-09-05T14:15:22.896Z,2.80
2018-09-05T14:17:51.763Z,2.85
2018-09-05T14:20:20.401Z,2.30
2018-09-05T14:22:50.900Z,2.33
2018-09-05T14:25:19.057Z,2.15
2018-09-05T14:27:49.285Z,1.95
2018-09-05T14:30:17.786Z,2.33
2018-09-05T14:32:45.935Z,3.72
2018-09-05T14:35:14.159Z,2.15
2018-09-05T14:37:42.262Z,2.30
2018-09-05T14:40:10.508Z,2.30
2018-09-05T14:42:39.774Z,2.30
2018-09-05T14:45:07.953Z,2.05
2018-09-05T14:47:36.127Z,2.30
2018-09-05T14:50:04.601Z,2.15
2018-09-05T14:52:32.758Z,2.60
2018-09-05T14:55:01.442Z,2.40
2018-09-05T14:57:29.906Z,2.40
2018-09-05T14:59:57.982Z,2.62
2018-09-05T15:02:26.195Z,2.50
2018-09-05T15:04:55.501Z,2.05
2018-09-05T15:07:24.025Z,2.17
2018-09-05T15:09:53.942Z,2.62
2018-09-05T15:12:22.969Z,2.35
2018-09-05T15:14:51.247Z,2.85
2018-09-05T15:17:19.445Z,2.22
2018-09-05T15:19:48.538Z,2.12
2018-09-05T15:22:16.597Z,2.00
2018-09-05T15:24:44.849Z,2.08
2018-09-05T15:27:13.068Z,3.22
2018-09-05T15:29:42.802Z,2.05
2018-09-05T15:32:10.956Z,1.98
2018-09-05T15:34:39.656Z,1.82
2018-09-05T15:37:08.298Z,2.20
2018-09-05T15:39:36.372Z,2.20
2018-09-05T15:42:04.985Z,3.10
2018-09-05T15:44:33.144Z,2.10
2018-09-05T15:47:01.641Z,2.02
2018-09-05T15:49:30.539Z,2.58
2018-09-05T15:51:59.326Z,1.75
2018-09-05T15:54:27.530Z,3.22
2018-09-05T15:56:55.769Z,2.52
2018-09-05T15:59:24.330Z,2.55
2018-09-05T16:01:53.757Z,2.95
2018-09-05T16:04:22.081Z,3.00
2018-09-05T16:06:50.642Z,3.15
2018-09-05T16:09:18.719Z,2.85
2018-09-05T16:11:48.321Z,3.00
2018-09-05T16:14:16.517Z,3.12
2018-09-05T16:16:44.728Z,3.92
2018-09-05T16:19:13.702Z,3.40
2018-09-05T16:22:46.162Z,3.92
2018-09-05T16:25:15.301Z,3.42
2018-09-05T16:27:43.706Z,3.83
2018-09-05T16:30:13.269Z,3.87
2018-09-05T16:32:42.307Z,3.45
2018-09-05T16:35:10.377Z,3.70
2018-09-05T16:37:38.687Z,3.37
2018-09-05T16:40:06.825Z,3.75
2018-09-05T16:42:34.994Z,3.95
2018-09-05T16:45:03.671Z,4.20
2018-09-05T16:47:32.048Z,4.17
2018-09-05T16:50:00.652Z,3.65
2018-09-05T16:52:30.382Z,3.60
2018-09-05T16:54:59.154Z,4.30
2018-09-05T16:57:28.145Z,4.03
2018-09-05T16:59:56.661Z,3.52
2018-09-05T17:02:25.791Z,4.00
2018-09-05T17:04:55.110Z,3.95
2018-09-05T17:07:23.314Z,4.22
2018-09-05T17:09:51.800Z,3.65
2018-09-05T17:12:21.258Z,3.72
2018-09-05T17:14:49.550Z,3.08
2018-09-05T17:17:18.044Z,3.70
2018-09-05T17:19:47.297Z,3.08
2018-09-05T17:22:16.397Z,3.55
2018-09-05T17:24:44.607Z,3.62
2018-09-05T17:27:14.061Z,3.40
2018-09-05T17:29:42.184Z,3.50
2018-09-05T17:32:10.645Z,3.87
2018-09-05T17:34:38.881Z,3.47
2018-09-05T17:37:07.257Z,3.42
2018-09-05T17:39:35.466Z,3.50
2018-09-05T17:42:03.555Z,3.92
2018-09-05T17:44:31.751Z,3.50
2018-09-05T17:46:59.921Z,3.60
2018-09-05T17:49:28.491Z,3.40
2018-09-05T17:51:56.562Z,3.12
2018-09-05T17:54:24.785Z,3.17
2018-09-05T17:56:52.933Z,3.62
2018-09-05T17:59:21.282Z,4.28
2018-09-05T18:01:49.521Z,4.53
2018-09-05T18:04:18.077Z,4.87
2018-09-05T18:06:46.218Z,3.70
2018-09-05T18:09:14.461Z,3.35
2018-09-05T18:11:42.566Z,3.10
2018-09-05T18:14:11.292Z,3.00
2018-09-05T18:16:39.357Z,2.80
2018-09-05T18:19:08.062Z,3.65
2018-09-05T18:21:36.781Z,2.83
2018-09-05T18:24:04.883Z,2.92
2018-09-05T18:26:33.122Z,3.20
2018-09-05T18:29:01.784Z,3.20
2018-09-05T18:31:30.466Z,2.58
2018-09-05T18:33:58.834Z,2.87
2018-09-05T18:36:27.925Z,2.60
2018-09-05T18:38:56.829Z,3.08
2018-09-05T18:41:25.287Z,4.33
2018-09-05T18:43:53.497Z,2.60
2018-09-05T18:46:21.929Z,2.83
2018-09-05T18:48:51.021Z,2.70
2018-09-05T18:51:20.138Z,2.92
2018-09-05T18:53:49.030Z,2.30
2018-09-05T18:56:17.413Z,2.85
2018-09-05T18:58:47.175Z,3.87
2018-09-05T19:01:15.222Z,2.95
2018-09-05T19:03:44.830Z,2.72
2018-09-05T19:06:13.358Z,3.10
2018-09-05T19:08:42.412Z,2.80
2018-09-05T19:11:10.541Z,3.20
2018-09-05T19:13:39.246Z,3.30
2018-09-05T19:16:08.371Z,2.80
2018-09-05T19:18:38.271Z,2.77
2018-09-05T19:21:06.961Z,2.98
2018-09-05T19:23:36.141Z,3.20
2018-09-05T19:26:04.385Z,3.87
2018-09-05T19:28:33.035Z,2.72
2018-09-05T19:31:01.819Z,3.25
2018-09-05T19:33:31.645Z,3.98
2018-09-05T19:36:00.315Z,3.52
2018-09-05T19:38:28.498Z,3.50
2018-09-05T19:40:56.910Z,3.20
2018-09-05T19:43:25.230Z,3.58
2018-09-05T19:45:53.425Z,3.17
2018-09-05T19:48:22.205Z,3.10
2018-09-05T19:50:50.281Z,4.15
2018-09-05T19:53:19.173Z,5.45
2018-09-05T19:55:47.946Z,5.90
2018-09-05T19:58:16.723Z,5.62
2018-09-05T20:00:45.134Z,6.03
2018-09-05T20:03:13.286Z,4.83
2018-09-05T20:05:42.917Z,5.45
2018-09-05T20:08:11.786Z,5.50
2018-09-05T20:10:40.302Z,5.58
2018-09-05T20:13:08.674Z,4.70
2018-09-05T20:15:37.745Z,6.53
2018-09-05T20:18:06.414Z,5.10
2018-09-05T20:20:35.364Z,4.33
2018-09-05T20:23:03.482Z,4.90
2018-09-05T20:25:32.294Z,5.30
2018-09-05T20:28:00.357Z,5.10
2018-09-05T20:30:30.297Z,6.15
2018-09-05T20:32:59.476Z,6.33
2018-09-05T20:35:27.677Z,5.20
2018-09-05T20:37:56.370Z,4.85
2018-09-05T20:40:24.493Z,5.40
2018-09-05T20:42:52.785Z,5.17
2018-09-05T20:45:21.249Z,5.03
2018-09-05T20:47:49.715Z,4.58
2018-09-05T20:50:18.694Z,5.67
2018-09-05T20:52:47.326Z,5.17
2018-09-05T20:55:15.845Z,5.53
2018-09-05T20:57:43.981Z,5.47
2018-09-05T21:00:12.745Z,5.60
2018-09-05T21:02:40.854Z,4.92
2018-09-05T21:05:09.066Z,5.30
2018-09-05T21:07:37.181Z,5.40
2018-09-05T21:10:06.141Z,6.60
2018-09-05T21:12:34.313Z,5.33
2018-09-05T21:15:02.698Z,4.75
2018-09-05T21:17:31.653Z,4.70
2018-09-05T21:20:00.625Z,5.17
2018-09-05T21:22:29.245Z,5.75
2018-09-05T21:24:57.995Z,5.25
2018-09-05T21:27:26.188Z,5.40
2018-09-05T21:29:54.313Z,5.00
2018-09-05T21:32:22.834Z,5.92
2018-09-05T21:34:51.027Z,6.00
2018-09-05T21:37:19.697Z,5.42
2018-09-05T21:39:47.929Z,5.75
2018-09-05T21:42:16.257Z,5.15
2018-09-05T21:44:45.758Z,5.33
2018-09-05T21:47:14.137Z,6.15
2018-09-05T21:49:42.905Z,5.55
2018-09-05T21:52:11.621Z,5.65
2018-09-05T21:54:40.654Z,5.58
2018-09-05T21:57:09.629Z,5.05
2018-09-05T21:59:38.813Z,6.80
2018-09-05T22:02:07.510Z,5.42
2018-09-05T22:04:36.854Z,5.00
2018-09-05T22:07:05.966Z,5.42
2018-09-05T22:09:35.003Z,5.78
2018-09-05T22:12:03.981Z,5.12
2018-09-05T22:14:32.963Z,5.35
2018-09-05T22:17:02.066Z,5.45
2018-09-05T22:19:30.981Z,5.60
2018-09-05T22:21:59.398Z,5.97
2018-09-05T22:24:27.556Z,5.65
2018-09-05T22:26:56.211Z,5.95
2018-09-05T22:29:24.831Z,6.33
2018-09-05T22:31:53.985Z,5.80
2018-09-05T22:34:23.817Z,6.47
2018-09-05T22:36:51.910Z,5.55
2018-09-05T22:39:20.855Z,6.20
2018-09-05T22:41:49.890Z,6.47
2018-09-05T22:44:29.538Z,5.72
2018-09-05T22:47:09.379Z,5.72
2018-09-05T22:49:55.203Z,5.65
2018-09-05T22:54:44.207Z,5.35
2018-09-05T22:59:29.440Z,6.58
2018-09-05T23:04:17.103Z,5.67
2018-09-05T23:06:57.819Z,5.67
2018-09-05T23:09:37.991Z,6.37
2018-09-05T23:12:19.167Z,5.97
2018-09-05T23:17:11.319Z,6.70
2018-09-05T23:20:48.811Z,6.45
2018-09-05T23:23:28.470Z,6.28
2018-09-05T23:25:56.613Z,6.15
2018-09-05T23:28:25.275Z,6.30
2018-09-05T23:30:53.826Z,7.08
2018-09-05T23:33:22.507Z,7.42
2018-09-05T23:35:50.863Z,6.47
2018-09-05T23:39:48.807Z,6.30
2018-09-05T23:42:17.319Z,7.47
2018-09-05T23:44:46.970Z,6.12
2018-09-05T23:47:15.682Z,6.33
2018-09-05T23:49:44.462Z,6.60
2018-09-05T23:52:13.538Z,6.20
2018-09-05T23:54:42.759Z,6.67
2018-09-05T23:57:14.004Z,6.53
2018-09-05T23:59:42.750Z,7.83
